createdAt,value
2017-07-18T00:00:25.848Z,2.70
2017-07-18T00:02:53.384Z,2.10
2017-07-18T00:05:20.918Z,2.70
2017-07-18T00:07:48.483Z,1.97
2017-07-18T00:10:16.024Z,1.73
2017-07-18T00:12:43.590Z,2.70
2017-07-18T00:15:11.164Z,2.67
2017-07-18T00:17:38.696Z,3.40
2017-07-18T00:20:06.267Z,3.27
2017-07-18T00:22:33.804Z,2.83
2017-07-18T00:25:01.342Z,3.10
2017-07-18T00:27:28.917Z,3.33
2017-07-18T00:29:56.450Z,3.17
2017-07-18T00:32:24.011Z,3.07
2017-07-18T00:34:51.550Z,2.77
2017-07-18T00:37:19.118Z,2.67
2017-07-18T00:39:46.735Z,2.77
2017-07-18T00:42:14.272Z,3.13
2017-07-18T00:44:41.809Z,2.93
2017-07-18T00:47:09.383Z,2.93
2017-07-18T00:49:36.919Z,3.10
2017-07-18T00:52:04.498Z,3.30
2017-07-18T00:54:32.037Z,3.10
2017-07-18T00:56:59.572Z,3.27
2017-07-18T00:59:27.145Z,3.77
2017-07-18T01:01:54.675Z,3.37
2017-07-18T01:04:22.198Z,3.30
2017-07-18T01:06:49.764Z,3.07
2017-07-18T01:09:17.344Z,3.47
2017-07-18T01:11:44.879Z,3.37
2017-07-18T01:14:12.411Z,2.80
2017-07-18T01:16:39.980Z,5.20
2017-07-18T01:19:07.510Z,3.10
2017-07-18T01:21:35.097Z,3.63
2017-07-18T01:24:02.634Z,3.90
2017-07-18T01:26:30.186Z,3.00
2017-07-18T01:28:57.760Z,3.00
2017-07-18T01:31:25.294Z,3.13
2017-07-18T01:33:53.772Z,3.47
2017-07-18T01:36:21.353Z,3.90
2017-07-18T01:38:48.889Z,3.30
2017-07-18T01:41:16.421Z,3.70
2017-07-18T01:43:43.987Z,3.73
2017-07-18T01:46:11.554Z,3.90
2017-07-18T01:48:39.119Z,3.13
2017-07-18T01:51:06.655Z,3.07
2017-07-18T01:53:34.234Z,3.60
2017-07-18T01:56:01.770Z,3.70
2017-07-18T01:58:29.307Z,4.17
2017-07-18T02:00:56.877Z,3.70
2017-07-18T02:03:24.412Z,4.13
2017-07-18T02:05:51.996Z,4.00
2017-07-18T02:08:19.524Z,3.00
2017-07-18T02:10:47.071Z,4.20
2017-07-18T02:13:14.634Z,4.13
2017-07-18T02:15:42.168Z,3.93
2017-07-18T02:18:09.731Z,4.33
2017-07-18T02:20:37.269Z,4.53
2017-07-18T02:23:04.848Z,5.30
2017-07-18T02:25:32.377Z,3.97
2017-07-18T02:27:59.913Z,3.70
2017-07-18T02:30:27.491Z,3.33
2017-07-18T02:32:55.032Z,3.20
2017-07-18T02:35:22.572Z,3.90
2017-07-18T02:37:50.140Z,4.43
2017-07-18T02:40:17.720Z,3.40
2017-07-18T02:42:45.289Z,3.13
2017-07-18T02:45:12.831Z,4.17
2017-07-18T02:47:40.395Z,3.83
2017-07-18T02:50:07.967Z,4.00
2017-07-18T02:52:35.551Z,3.93
2017-07-18T02:55:03.081Z,3.53
2017-07-18T02:57:30.611Z,3.63
2017-07-18T02:59:58.177Z,4.50
2017-07-18T03:02:25.713Z,3.90
2017-07-18T03:04:53.248Z,4.87
2017-07-18T03:07:20.834Z,5.40
2017-07-18T03:09:48.367Z,5.27
2017-07-18T03:12:15.900Z,5.13
2017-07-18T03:14:43.463Z,4.03
2017-07-18T03:17:11.023Z,4.70
2017-07-18T03:19:38.555Z,3.73
2017-07-18T03:22:06.131Z,5.10
2017-07-18T03:24:35.269Z,5.00
2017-07-18T03:27:02.799Z,4.50
2017-07-18T03:29:30.356Z,5.57
2017-07-18T03:31:57.886Z,4.60
2017-07-18T03:34:25.447Z,4.50
2017-07-18T03:36:52.990Z,4.30
2017-07-18T03:39:20.558Z,4.70
2017-07-18T03:41:48.118Z,5.27
2017-07-18T03:44:15.651Z,5.27
2017-07-18T03:46:43.223Z,5.30
2017-07-18T03:49:10.753Z,4.80
2017-07-18T03:51:38.283Z,5.20
2017-07-18T03:54:05.864Z,4.37
2017-07-18T03:56:33.399Z,5.33
2017-07-18T03:59:00.939Z,4.90
2017-07-18T04:01:28.506Z,4.80
2017-07-18T04:03:56.041Z,5.03
2017-07-18T04:06:23.607Z,4.40
2017-07-18T04:08:51.140Z,5.80
2017-07-18T04:11:18.719Z,5.87
2017-07-18T04:13:46.258Z,5.73
2017-07-18T04:16:13.797Z,5.00
2017-07-18T04:18:41.369Z,5.77
2017-07-18T04:21:08.901Z,5.27
2017-07-18T04:23:36.483Z,5.07
2017-07-18T04:26:04.019Z,5.17
2017-07-18T04:28:31.550Z,5.73
2017-07-18T04:30:59.115Z,5.87
2017-07-18T04:33:26.656Z,5.63
2017-07-18T04:35:54.262Z,5.80
2017-07-18T04:38:21.799Z,6.07
2017-07-18T04:40:49.334Z,6.40
2017-07-18T04:43:16.905Z,6.53
2017-07-18T04:45:44.442Z,6.10
2017-07-18T04:48:11.979Z,7.17
2017-07-18T04:50:41.001Z,5.50
2017-07-18T04:53:09.461Z,6.37
2017-07-18T04:55:37.038Z,6.90
2017-07-18T04:58:04.576Z,8.53
2017-07-18T05:00:32.829Z,8.00
2017-07-18T05:03:00.396Z,7.23
2017-07-18T05:05:27.955Z,7.67
2017-07-18T05:07:55.518Z,8.70
2017-07-18T05:10:23.046Z,8.17
2017-07-18T05:12:50.612Z,8.07
2017-07-18T05:15:18.186Z,8.27
2017-07-18T05:17:45.727Z,7.67
2017-07-18T05:20:13.300Z,8.37
2017-07-18T05:22:40.835Z,9.60
2017-07-18T05:25:08.373Z,8.20
2017-07-18T05:27:36.059Z,8.87
2017-07-18T05:30:03.596Z,9.33
2017-07-18T05:32:31.130Z,9.37
2017-07-18T05:34:58.701Z,9.50
2017-07-18T05:37:26.239Z,8.47
2017-07-18T05:39:53.805Z,8.43
2017-07-18T05:42:21.341Z,8.07
2017-07-18T05:44:48.911Z,9.00
2017-07-18T05:47:17.206Z,9.50
2017-07-18T05:49:44.738Z,9.50
2017-07-18T05:52:12.320Z,9.80
2017-07-18T05:54:39.857Z,10.23
2017-07-18T05:57:07.403Z,11.87
2017-07-18T05:59:34.982Z,10.63
2017-07-18T06:02:02.515Z,12.77
2017-07-18T06:04:30.064Z,12.33
2017-07-18T06:06:57.644Z,12.20
2017-07-18T06:09:25.190Z,12.07
2017-07-18T06:11:52.730Z,12.40
2017-07-18T06:14:20.314Z,13.23
2017-07-18T06:16:47.896Z,13.70
2017-07-18T06:19:15.436Z,14.37
2017-07-18T06:21:43.015Z,15.50
2017-07-18T06:24:10.562Z,14.27
2017-07-18T06:26:38.140Z,12.97
2017-07-18T06:29:05.717Z,14.10
2017-07-18T06:31:33.253Z,13.43
2017-07-18T06:34:00.833Z,13.47
2017-07-18T06:36:28.382Z,12.20
2017-07-18T06:38:55.929Z,11.80
2017-07-18T06:41:23.499Z,11.63
2017-07-18T06:43:51.038Z,11.73
2017-07-18T06:46:18.608Z,14.20
2017-07-18T06:48:46.175Z,10.80
2017-07-18T06:51:13.716Z,11.57
2017-07-18T06:53:41.283Z,10.17
2017-07-18T06:56:08.846Z,9.97
2017-07-18T06:58:37.346Z,10.30
2017-07-18T07:03:38.653Z,10.40
2017-07-18T07:06:06.218Z,9.90
2017-07-18T07:08:33.788Z,8.73
2017-07-18T07:11:01.356Z,8.60
2017-07-18T07:13:28.889Z,7.60
2017-07-18T07:15:56.464Z,7.63
2017-07-18T07:18:23.997Z,7.97
2017-07-18T07:20:51.527Z,7.87
2017-07-18T07:23:19.103Z,8.27
2017-07-18T07:25:46.634Z,7.57
2017-07-18T07:28:14.172Z,7.73
2017-07-18T07:30:41.747Z,7.13
2017-07-18T07:33:09.276Z,7.87
2017-07-18T07:35:36.836Z,7.43
2017-07-18T07:38:04.369Z,7.27
2017-07-18T07:40:31.936Z,7.67
2017-07-18T07:42:59.476Z,8.47
2017-07-18T07:45:27.050Z,7.60
2017-07-18T07:47:54.589Z,7.83
2017-07-18T07:50:22.119Z,6.20
2017-07-18T07:52:49.685Z,7.00
2017-07-18T07:55:17.210Z,5.53
2017-07-18T07:57:44.786Z,6.97
2017-07-18T08:00:12.322Z,6.50
2017-07-18T08:02:39.854Z,6.43
2017-07-18T08:05:07.430Z,6.53
2017-07-18T08:07:34.964Z,6.20
2017-07-18T08:10:02.498Z,5.60
2017-07-18T08:12:30.077Z,6.60
2017-07-18T08:14:57.614Z,5.50
2017-07-18T08:17:25.143Z,4.40
2017-07-18T08:19:52.716Z,4.90
2017-07-18T08:22:20.250Z,4.80
2017-07-18T08:24:47.794Z,4.70
2017-07-18T08:27:15.941Z,4.63
2017-07-18T08:29:43.471Z,4.40
2017-07-18T08:32:11.006Z,4.50
2017-07-18T08:34:38.567Z,4.57
2017-07-18T08:37:06.094Z,4.13
2017-07-18T08:39:33.670Z,4.60
2017-07-18T08:42:01.197Z,5.00
2017-07-18T08:44:28.721Z,5.03
2017-07-18T08:46:56.287Z,4.77
2017-07-18T08:49:23.846Z,4.47
2017-07-18T08:51:51.377Z,4.77
2017-07-18T08:54:18.957Z,4.63
2017-07-18T08:56:46.491Z,4.77
2017-07-18T08:59:14.022Z,4.63
2017-07-18T09:01:41.581Z,5.13
2017-07-18T09:04:09.121Z,4.23
2017-07-18T09:06:36.692Z,4.20
2017-07-18T09:09:04.228Z,4.40
2017-07-18T09:11:31.799Z,4.53
2017-07-18T09:13:59.349Z,4.13
2017-07-18T09:16:26.882Z,4.40
2017-07-18T09:18:54.447Z,4.43
2017-07-18T09:21:21.982Z,4.93
2017-07-18T09:23:49.543Z,4.00
2017-07-18T09:26:17.132Z,4.93
2017-07-18T09:28:44.665Z,4.47
2017-07-18T09:31:12.193Z,4.73
2017-07-18T09:33:39.757Z,4.17
2017-07-18T09:36:07.338Z,4.47
2017-07-18T09:38:34.873Z,5.00
2017-07-18T09:41:02.411Z,4.27
2017-07-18T09:43:29.978Z,4.40
2017-07-18T09:45:57.510Z,4.30
2017-07-18T09:48:25.066Z,4.60
2017-07-18T09:50:52.605Z,4.60
2017-07-18T09:53:20.163Z,4.40
2017-07-18T09:55:47.736Z,3.97
2017-07-18T09:58:15.268Z,5.40
2017-07-18T10:00:42.802Z,4.93
2017-07-18T10:03:10.362Z,4.40
2017-07-18T10:05:37.903Z,4.50
2017-07-18T10:08:05.469Z,4.50
2017-07-18T10:10:33.001Z,4.50
2017-07-18T10:13:00.535Z,4.30
2017-07-18T10:15:28.117Z,5.07
2017-07-18T10:17:55.650Z,5.13
2017-07-18T10:20:23.181Z,4.40
2017-07-18T10:22:50.759Z,4.63
2017-07-18T10:25:18.287Z,4.00
2017-07-18T10:27:45.821Z,4.50
2017-07-18T10:30:13.383Z,4.97
2017-07-18T10:32:40.946Z,4.63
2017-07-18T10:35:08.520Z,4.70
2017-07-18T10:37:36.054Z,4.00
2017-07-18T10:40:03.592Z,4.60
2017-07-18T10:42:31.159Z,4.57
2017-07-18T10:44:58.698Z,4.20
2017-07-18T10:47:26.267Z,3.73
2017-07-18T10:49:53.793Z,3.70
2017-07-18T10:52:21.380Z,4.40
2017-07-18T10:54:48.924Z,3.40
2017-07-18T10:57:16.465Z,3.73
2017-07-18T10:59:44.031Z,4.03
2017-07-18T11:02:11.567Z,4.07
2017-07-18T11:04:39.137Z,4.63
2017-07-18T11:07:06.666Z,3.73
2017-07-18T11:09:34.198Z,3.93
2017-07-18T11:12:01.771Z,4.10
2017-07-18T11:14:29.325Z,4.10
2017-07-18T11:16:56.899Z,4.07
2017-07-18T11:19:24.431Z,3.43
2017-07-18T11:21:51.958Z,4.60
2017-07-18T11:24:19.518Z,3.97
2017-07-18T11:26:47.050Z,3.90
2017-07-18T11:29:14.630Z,3.80
2017-07-18T11:31:42.167Z,4.30
2017-07-18T11:34:09.711Z,4.00
2017-07-18T11:36:37.267Z,3.60
2017-07-18T11:39:04.794Z,3.90
2017-07-18T11:41:32.360Z,3.60
2017-07-18T11:43:59.890Z,3.70
2017-07-18T11:46:27.461Z,3.50
2017-07-18T11:48:55.859Z,3.30
2017-07-18T11:51:23.391Z,3.53
2017-07-18T11:53:50.954Z,3.60
2017-07-18T11:56:18.499Z,4.00
2017-07-18T11:58:46.063Z,2.67
2017-07-18T12:01:13.597Z,4.00
2017-07-18T12:03:41.172Z,3.30
2017-07-18T12:06:08.712Z,3.60
2017-07-18T12:08:36.254Z,3.13
2017-07-18T12:11:03.825Z,3.50
2017-07-18T12:13:31.361Z,3.80
2017-07-18T12:15:59.251Z,4.03
2017-07-18T12:18:38.483Z,3.90
2017-07-18T12:21:06.042Z,3.13
2017-07-18T12:23:33.579Z,3.90
2017-07-18T12:26:01.164Z,3.37
2017-07-18T12:28:28.699Z,3.63
2017-07-18T12:30:56.236Z,3.57
2017-07-18T12:33:23.820Z,3.50
2017-07-18T12:35:51.355Z,3.13
2017-07-18T12:38:18.913Z,3.73
2017-07-18T12:40:46.489Z,3.57
2017-07-18T12:43:14.019Z,3.60
2017-07-18T12:45:41.551Z,3.00
2017-07-18T12:48:09.138Z,3.27
2017-07-18T12:50:36.697Z,3.63
2017-07-18T12:53:04.230Z,3.27
2017-07-18T12:55:31.757Z,3.57
2017-07-18T12:57:59.336Z,3.53
2017-07-18T13:00:26.899Z,3.03
2017-07-18T13:02:54.440Z,3.10
2017-07-18T13:05:22.019Z,3.93
2017-07-18T13:07:49.557Z,3.77
2017-07-18T13:10:17.092Z,3.07
2017-07-18T13:12:44.650Z,3.37
2017-07-18T13:15:12.186Z,4.00
2017-07-18T13:17:41.735Z,3.53
2017-07-18T13:20:09.267Z,3.17
2017-07-18T13:22:36.883Z,3.47
2017-07-18T13:25:04.444Z,3.07
2017-07-18T13:27:32.911Z,3.70
2017-07-18T13:30:00.487Z,3.13
2017-07-18T13:32:28.034Z,4.20
2017-07-18T13:34:55.574Z,2.93
2017-07-18T13:37:23.141Z,3.47
2017-07-18T13:39:50.671Z,3.30
2017-07-18T13:42:18.234Z,3.73
2017-07-18T13:44:45.770Z,3.23
2017-07-18T13:47:14.118Z,3.40
2017-07-18T13:49:41.678Z,2.80
2017-07-18T13:52:09.999Z,3.30
2017-07-18T13:54:38.150Z,3.07
2017-07-18T13:57:05.683Z,2.70
2017-07-18T13:59:33.242Z,2.87
2017-07-18T14:02:00.775Z,2.70
2017-07-18T14:04:28.345Z,3.00
2017-07-18T14:06:55.873Z,3.03
2017-07-18T14:09:23.430Z,3.93
2017-07-18T14:11:50.993Z,2.60
2017-07-18T14:14:18.532Z,3.20
2017-07-18T14:16:46.102Z,3.60
2017-07-18T14:19:13.638Z,3.40
2017-07-18T14:21:41.175Z,2.90
2017-07-18T14:24:08.737Z,2.60
2017-07-18T14:26:36.270Z,3.83
2017-07-18T14:29:03.835Z,2.80
2017-07-18T14:31:31.833Z,3.13
2017-07-18T14:33:59.368Z,3.30
2017-07-18T14:36:26.943Z,3.00
2017-07-18T14:38:54.471Z,3.13
2017-07-18T14:41:22.034Z,3.07
2017-07-18T14:43:49.571Z,3.00
2017-07-18T14:46:17.142Z,2.50
2017-07-18T14:48:44.730Z,3.10
2017-07-18T14:51:12.274Z,3.00
2017-07-18T14:53:39.803Z,2.70
2017-07-18T14:56:07.372Z,3.03
2017-07-18T14:58:34.912Z,2.83
2017-07-18T15:01:02.487Z,2.93
2017-07-18T15:03:30.018Z,3.23
2017-07-18T15:05:57.556Z,3.10
2017-07-18T15:08:25.986Z,2.80
2017-07-18T15:10:53.517Z,3.90
2017-07-18T15:13:21.093Z,3.03
2017-07-18T15:15:48.630Z,3.37
2017-07-18T15:18:16.164Z,3.43
2017-07-18T15:20:43.726Z,2.97
2017-07-18T15:23:11.268Z,3.10
2017-07-18T15:25:38.851Z,3.20
2017-07-18T15:28:06.387Z,3.40
2017-07-18T15:30:33.920Z,3.30
2017-07-18T15:33:01.483Z,3.00
2017-07-18T15:35:29.023Z,2.73
2017-07-18T15:37:56.594Z,2.80
2017-07-18T15:40:24.125Z,3.30
2017-07-18T15:42:51.686Z,3.67
2017-07-18T15:45:19.247Z,3.10
2017-07-18T15:47:46.783Z,2.80
2017-07-18T15:50:14.351Z,2.97
2017-07-18T15:52:41.883Z,3.40
2017-07-18T15:55:09.443Z,3.77
2017-07-18T15:57:37.019Z,3.30
2017-07-18T16:00:04.555Z,3.60
2017-07-18T16:02:32.100Z,3.10
2017-07-18T16:04:59.667Z,2.83
2017-07-18T16:07:27.209Z,2.50
2017-07-18T16:09:54.784Z,3.60
2017-07-18T16:12:22.318Z,3.37
2017-07-18T16:14:49.859Z,3.63
2017-07-18T16:17:17.422Z,3.33
2017-07-18T16:19:44.959Z,2.73
2017-07-18T16:22:12.518Z,3.53
2017-07-18T16:24:40.053Z,3.57
2017-07-18T16:27:09.407Z,3.43
2017-07-18T16:29:36.981Z,3.47
2017-07-18T16:32:04.516Z,3.10
2017-07-18T16:34:32.286Z,3.33
2017-07-18T16:37:00.876Z,3.50
2017-07-18T16:39:28.413Z,3.20
2017-07-18T16:41:57.135Z,3.40
2017-07-18T16:44:26.746Z,3.27
2017-07-18T16:46:56.640Z,3.60
2017-07-18T16:49:24.411Z,3.60
2017-07-18T16:51:51.995Z,3.70
2017-07-18T16:54:19.522Z,3.60
2017-07-18T16:56:47.056Z,3.30
2017-07-18T16:59:14.615Z,3.50
2017-07-18T17:01:42.190Z,3.93
2017-07-18T17:04:09.720Z,3.70
2017-07-18T17:06:37.257Z,3.60
2017-07-18T17:09:04.821Z,3.80
2017-07-18T17:11:32.399Z,3.10
2017-07-18T17:14:00.867Z,3.20
2017-07-18T17:16:28.405Z,4.10
2017-07-18T17:18:55.974Z,4.10
2017-07-18T17:21:23.519Z,4.10
2017-07-18T17:23:51.052Z,3.70
2017-07-18T17:26:18.619Z,3.40
2017-07-18T17:28:46.144Z,3.57
2017-07-18T17:31:13.707Z,3.50
2017-07-18T17:33:41.238Z,3.80
2017-07-18T17:36:08.801Z,4.53
2017-07-18T17:38:36.330Z,3.33
2017-07-18T17:41:03.897Z,3.30
2017-07-18T17:43:31.431Z,3.70
2017-07-18T17:46:00.358Z,3.50
2017-07-18T17:48:27.895Z,2.97
2017-07-18T17:50:55.463Z,3.60
2017-07-18T17:53:23.238Z,3.17
2017-07-18T17:55:50.963Z,3.30
2017-07-18T17:58:18.505Z,3.80
2017-07-18T18:00:46.842Z,4.10
2017-07-18T18:03:14.383Z,3.90
2017-07-18T18:05:41.918Z,3.43
2017-07-18T18:08:10.106Z,3.57
2017-07-18T18:10:37.643Z,3.40
2017-07-18T18:13:05.204Z,3.97
2017-07-18T18:15:33.329Z,3.40
2017-07-18T18:18:02.368Z,3.57
2017-07-18T18:20:31.267Z,3.20
2017-07-18T18:23:00.028Z,4.53
2017-07-18T18:25:27.591Z,3.80
2017-07-18T18:27:55.121Z,3.97
2017-07-18T18:30:23.681Z,3.90
2017-07-18T18:32:51.221Z,3.57
2017-07-18T18:35:18.809Z,3.47
2017-07-18T18:37:46.348Z,3.63
2017-07-18T18:40:14.607Z,3.60
2017-07-18T18:42:42.142Z,4.03
2017-07-18T18:45:09.703Z,3.90
2017-07-18T18:47:37.233Z,4.67
2017-07-18T18:50:04.798Z,3.80
2017-07-18T18:52:32.333Z,3.60
2017-07-18T18:54:59.905Z,3.37
2017-07-18T18:57:27.441Z,4.30
2017-07-18T18:59:54.976Z,3.90
2017-07-18T19:02:22.545Z,3.93
2017-07-18T19:04:50.090Z,3.70
2017-07-18T19:07:17.656Z,3.73
2017-07-18T19:09:46.550Z,3.60
2017-07-18T19:12:14.114Z,3.40
2017-07-18T19:14:41.648Z,3.53
2017-07-18T19:17:09.212Z,4.17
2017-07-18T19:19:36.744Z,3.80
2017-07-18T19:22:04.302Z,3.97
2017-07-18T19:24:31.867Z,4.20
2017-07-18T19:26:59.406Z,4.17
2017-07-18T19:29:26.971Z,4.03
2017-07-18T19:31:54.590Z,3.77
2017-07-18T19:34:22.121Z,3.23
2017-07-18T19:36:49.928Z,3.10
2017-07-18T19:39:17.460Z,4.10
2017-07-18T19:41:44.996Z,4.00
2017-07-18T19:44:12.556Z,3.80
2017-07-18T19:46:40.141Z,3.17
2017-07-18T19:49:07.683Z,4.13
2017-07-18T19:51:35.208Z,3.70
2017-07-18T19:54:02.783Z,4.10
2017-07-18T19:56:30.319Z,4.03
2017-07-18T19:58:57.854Z,3.90
2017-07-18T20:01:25.431Z,3.53
2017-07-18T20:03:52.968Z,4.03
2017-07-18T20:06:20.537Z,4.10
2017-07-18T20:08:48.106Z,3.50
2017-07-18T20:11:15.641Z,4.47
2017-07-18T20:13:44.943Z,4.00
2017-07-18T20:16:12.572Z,3.60
2017-07-18T20:18:40.101Z,3.97
2017-07-18T20:21:07.680Z,4.00
2017-07-18T20:23:35.207Z,4.13
2017-07-18T20:26:02.741Z,3.50
2017-07-18T20:28:30.367Z,3.40
2017-07-18T20:30:57.898Z,3.47
2017-07-18T20:33:25.473Z,3.73
2017-07-18T20:35:53.006Z,4.00
2017-07-18T20:38:20.588Z,4.27
2017-07-18T20:40:48.770Z,4.03
2017-07-18T20:43:16.643Z,4.30
2017-07-18T20:45:45.683Z,3.83
2017-07-18T20:48:17.630Z,4.27
2017-07-18T20:50:46.659Z,3.70
2017-07-18T20:53:14.197Z,4.20
2017-07-18T20:55:42.630Z,3.43
2017-07-18T21:00:43.055Z,3.93
2017-07-18T21:03:10.869Z,4.73
2017-07-18T21:05:39.011Z,3.93
2017-07-18T21:08:07.025Z,4.37
2017-07-18T21:10:34.553Z,4.23
2017-07-18T21:13:02.113Z,4.53
2017-07-18T21:15:29.642Z,3.40
2017-07-18T21:17:57.213Z,4.37
2017-07-18T21:20:24.746Z,4.73
2017-07-18T21:22:52.285Z,3.90
2017-07-18T21:25:20.079Z,4.30
2017-07-18T21:27:48.735Z,4.10
2017-07-18T21:30:16.301Z,4.53
2017-07-18T21:32:43.926Z,3.70
2017-07-18T21:35:11.512Z,4.00
2017-07-18T21:37:39.763Z,4.90
2017-07-18T21:40:07.303Z,4.00
2017-07-18T21:42:34.866Z,4.13
2017-07-18T21:45:02.400Z,4.47
2017-07-18T21:47:29.978Z,5.33
2017-07-18T21:49:58.078Z,3.97
2017-07-18T21:52:25.638Z,4.80
2017-07-18T21:54:53.175Z,3.87
2017-07-18T21:57:20.746Z,4.30
2017-07-18T21:59:48.313Z,4.53
2017-07-18T22:02:15.849Z,4.60
2017-07-18T22:04:43.415Z,4.50
2017-07-18T22:07:10.954Z,4.87
2017-07-18T22:09:38.536Z,4.40
2017-07-18T22:12:06.410Z,4.60
2017-07-18T22:14:33.938Z,4.67
2017-07-18T22:17:01.504Z,4.43
2017-07-18T22:19:29.050Z,4.40
2017-07-18T22:21:56.638Z,4.37
2017-07-18T22:24:24.161Z,4.60
2017-07-18T22:26:51.738Z,4.07
2017-07-18T22:29:19.266Z,4.50
2017-07-18T22:31:46.795Z,4.03
2017-07-18T22:34:14.358Z,5.20
2017-07-18T22:36:41.881Z,4.47
2017-07-18T22:39:09.454Z,4.87
2017-07-18T22:41:36.978Z,4.80
2017-07-18T22:44:04.508Z,5.07
2017-07-18T22:46:32.110Z,5.90
2017-07-18T22:48:59.646Z,4.30
2017-07-18T22:51:27.180Z,4.33
2017-07-18T22:53:54.740Z,4.93
2017-07-18T22:56:22.267Z,4.97
2017-07-18T22:58:49.835Z,4.67
2017-07-18T23:01:17.370Z,6.70
2017-07-18T23:03:44.929Z,4.40
2017-07-18T23:06:12.478Z,5.20
2017-07-18T23:08:40.047Z,5.47
2017-07-18T23:11:07.578Z,4.80
2017-07-18T23:13:35.123Z,5.90
2017-07-18T23:16:02.704Z,4.97
2017-07-18T23:18:30.235Z,4.37
2017-07-18T23:20:57.757Z,4.90
2017-07-18T23:23:25.322Z,5.97
2017-07-18T23:25:52.863Z,5.10
2017-07-18T23:28:20.430Z,5.40
2017-07-18T23:30:47.960Z,7.50
2017-07-18T23:33:15.534Z,5.67
2017-07-18T23:35:43.068Z,6.03
2017-07-18T23:38:10.598Z,6.40
2017-07-18T23:40:38.169Z,6.30
2017-07-18T23:43:05.695Z,5.80
2017-07-18T23:45:33.238Z,6.43
2017-07-18T23:48:00.817Z,6.17
2017-07-18T23:50:28.343Z,6.23
2017-07-18T23:52:55.909Z,6.27
2017-07-18T23:55:23.442Z,6.33
2017-07-18T23:57:51.013Z,6.67
